メインページ
METAR-TAF:

METAR-TAF

空港 :

プルコヴォ空港

サンクトペテルブルク, ロシア

緯度: 59-58N, 経度: 030-18E, 海抜: 4m

現時点の気象観測

当レポートは19分前の06:00(UTC)に作成
西の風 8kt
気温 3°C
湿度 87%
気圧 1009 hPa
視程10km以上
高度900ftの雲は散在している
高度1900ftの千切れ雲あり
高度3600ftの曇り

METAR: ULLI 200600Z 26004MPS 9999 SCT009 BKN019 OVC036 03/01 Q1009 R88/290050 NOSIG

時間: 09:19 (06:19 UTC)

予報

当レポートは1時間19分前の05:00(UTC)に作成
予報は20日の 06時(UTC)から 21日の 06時(UTC)まで有効
西/南西の風 6kt
視程10km以上
高度1000ftの千切れ雲あり
高度2000ftの千切れ雲あり
20日の 06時(UTC)から 20日の 18時(UTC)まで一時的に
視程: 3100m
高度600ftの千切れ雲あり
高度1500ftの千切れ雲あり, 積乱雲.
弱いにわか雪, 雨, 靄
20日の 07時(UTC)から 20日の 09時(UTC)まで徐々に
西/北西の風 6kt
20日の 19時(UTC)から 20日の 21時(UTC)まで徐々に
の風 6kt
高度1100ftの千切れ雲あり

TAF: ULLI 200500Z 2006/2106 24003MPS 9999 BKN010 BKN020 TEMPO 2006/2018 3100 -SHSNRA BR BKN006 BKN015CB BECMG 2007/2009 29003MPS BECMG 2019/2021 18003MPS BKN011

4,000以上の空港の気象観測と天気予報(METAR報とTAF報)

利用可能な観測所は地図上に黄色い丸と赤い丸で示す。

丸の上にカーソルを重ねると観測所名を参照できる。

次にクリックすると気象観測と天気予報を参照できる。

マップの切り替え:黒色「×」印の緑ボタンをクリックして拡大、「-」印の緑ボタンをクリックして縮小、緑色の三角印をクリックして隣りの地図に切り替え


METAR-TAF: